createdAt,value
2022-08-03T00:00:00.438Z,68.31
2022-08-03T00:01:00.317Z,68.31
2022-08-03T00:02:00.310Z,68.31
2022-08-03T00:03:00.358Z,68.31
2022-08-03T00:04:00.310Z,69.18
2022-08-03T00:05:00.300Z,69.18
2022-08-03T00:06:04.185Z,69.18
2022-08-03T00:07:00.288Z,69.18
2022-08-03T00:08:00.343Z,69.18
2022-08-03T00:09:00.679Z,69.23
2022-08-03T00:10:00.371Z,69.23
2022-08-03T00:11:00.600Z,69.23
2022-08-03T00:12:00.259Z,69.23
2022-08-03T00:13:00.317Z,69.23
2022-08-03T00:14:00.319Z,69.18
2022-08-03T00:15:00.321Z,69.18
2022-08-03T00:16:00.372Z,69.18
2022-08-03T00:17:00.478Z,69.18
2022-08-03T00:18:00.323Z,69.18
2022-08-03T00:19:00.843Z,69.62
2022-08-03T00:20:00.278Z,69.62
2022-08-03T00:21:00.791Z,69.62
2022-08-03T00:22:00.278Z,69.62
2022-08-03T00:23:00.378Z,69.62
2022-08-03T00:24:00.376Z,69.50
2022-08-03T00:25:00.331Z,69.50
2022-08-03T00:26:00.377Z,69.50
2022-08-03T00:27:00.285Z,69.50
2022-08-03T00:28:00.623Z,69.50
2022-08-03T00:29:00.323Z,70.18
2022-08-03T00:30:00.669Z,70.18
2022-08-03T00:31:00.581Z,70.18
2022-08-03T00:32:00.698Z,70.18
2022-08-03T00:33:00.643Z,70.18
2022-08-03T00:34:03.291Z,70.63
2022-08-03T00:35:00.990Z,70.63
2022-08-03T00:36:00.268Z,70.63
2022-08-03T00:37:00.288Z,70.63
2022-08-03T00:38:00.280Z,70.63
2022-08-03T00:39:00.271Z,70.79
2022-08-03T00:40:00.340Z,70.79
2022-08-03T00:41:00.331Z,70.79
2022-08-03T00:42:02.235Z,70.79
2022-08-03T00:43:01.225Z,70.79
2022-08-03T00:44:00.278Z,70.43
2022-08-03T00:45:00.362Z,70.43
2022-08-03T00:46:00.296Z,70.43
2022-08-03T00:47:00.378Z,70.43
2022-08-03T00:48:00.707Z,70.43
2022-08-03T00:49:01.179Z,70.43
2022-08-03T00:50:00.279Z,70.43
2022-08-03T00:52:00.744Z,70.43
2022-08-03T00:53:01.251Z,70.43
2022-08-03T00:54:00.339Z,70.64
2022-08-03T00:55:01.074Z,70.64
2022-08-03T00:56:00.523Z,70.64
2022-08-03T00:57:00.706Z,70.64
2022-08-03T00:58:01.361Z,70.64
2022-08-03T00:59:00.790Z,70.85
2022-08-03T01:00:00.592Z,70.85
2022-08-03T01:01:01.656Z,70.85
2022-08-03T01:02:00.280Z,70.85
2022-08-03T01:03:00.732Z,70.85
2022-08-03T01:04:00.301Z,70.89
2022-08-03T01:05:00.421Z,70.89
2022-08-03T01:06:10.179Z,70.89
2022-08-03T01:07:00.261Z,70.89
2022-08-03T01:08:10.205Z,70.89
2022-08-03T01:09:10.192Z,70.57
2022-08-03T01:10:01.301Z,70.57
2022-08-03T01:11:07.722Z,70.57
2022-08-03T01:12:05.004Z,70.57
2022-08-03T01:13:07.795Z,70.57
2022-08-03T01:14:18.084Z,71.06
2022-08-03T01:15:10.200Z,71.06
2022-08-03T01:16:03.658Z,71.06
2022-08-03T01:17:04.007Z,71.06
2022-08-03T01:18:10.176Z,71.06
2022-08-03T01:19:03.536Z,71.23
2022-08-03T01:20:03.076Z,71.23
2022-08-03T01:21:02.743Z,71.23
2022-08-03T01:22:07.696Z,71.23
2022-08-03T01:23:10.173Z,71.23
2022-08-03T01:24:04.318Z,71.32
2022-08-03T01:25:10.194Z,71.32
2022-08-03T01:26:01.277Z,71.32
2022-08-03T01:27:03.858Z,71.32
2022-08-03T01:28:10.181Z,71.32
2022-08-03T01:29:00.295Z,70.83
2022-08-03T01:30:08.291Z,70.83
2022-08-03T01:31:02.843Z,70.83
2022-08-03T01:32:58.120Z,70.83
2022-08-03T01:33:03.548Z,70.83
2022-08-03T01:34:01.977Z,71.58
2022-08-03T01:35:02.772Z,71.58
2022-08-03T01:36:02.144Z,71.58
2022-08-03T01:37:02.235Z,71.58
2022-08-03T01:38:03.735Z,71.58
2022-08-03T01:39:01.415Z,70.96
2022-08-03T01:40:01.349Z,70.96
2022-08-03T01:41:04.775Z,70.96
2022-08-03T01:42:02.889Z,70.96
2022-08-03T01:43:02.046Z,70.96
2022-08-03T01:44:29.358Z,71.28
2022-08-03T01:45:00.890Z,71.28
2022-08-03T01:46:02.093Z,71.28
2022-08-03T01:47:01.352Z,71.28
2022-08-03T01:48:01.407Z,71.28
2022-08-03T01:49:09.152Z,71.24
2022-08-03T01:50:01.173Z,71.24
2022-08-03T01:51:00.838Z,71.24
2022-08-03T01:52:03.998Z,71.24
2022-08-03T01:53:00.890Z,71.24
2022-08-03T01:54:00.549Z,71.53
2022-08-03T01:55:02.021Z,71.53
2022-08-03T01:56:01.491Z,71.53
2022-08-03T01:57:01.504Z,71.53
2022-08-03T01:58:05.215Z,71.53
2022-08-03T01:59:01.517Z,71.55
2022-08-03T02:00:00.610Z,71.55
2022-08-03T02:01:01.371Z,71.55
2022-08-03T02:02:28.535Z,71.55
2022-08-03T02:03:00.997Z,71.55
2022-08-03T02:04:01.749Z,72.29
2022-08-03T02:05:01.798Z,72.29
2022-08-03T02:07:02.231Z,72.29
2022-08-03T02:07:03.303Z,72.29
2022-08-03T02:08:00.969Z,72.29
2022-08-03T02:09:01.161Z,71.92
2022-08-03T02:10:01.668Z,71.92
2022-08-03T02:11:01.163Z,71.92
2022-08-03T02:12:00.495Z,71.92
2022-08-03T02:13:00.984Z,71.92
2022-08-03T02:14:02.846Z,72.39
2022-08-03T02:15:00.834Z,72.39
2022-08-03T02:16:01.693Z,72.39
2022-08-03T02:17:00.865Z,72.39
2022-08-03T02:18:02.187Z,72.39
2022-08-03T02:19:01.862Z,72.58
2022-08-03T02:20:01.281Z,72.58
2022-08-03T02:21:00.902Z,72.58
2022-08-03T02:22:01.936Z,72.58
2022-08-03T02:23:00.301Z,72.58
2022-08-03T02:24:00.474Z,72.56
2022-08-03T02:25:00.534Z,72.56
2022-08-03T02:26:03.538Z,72.56
2022-08-03T02:27:02.512Z,72.56
2022-08-03T02:28:05.312Z,72.56
2022-08-03T02:29:02.209Z,72.44
2022-08-03T02:30:04.379Z,72.44
2022-08-03T02:31:03.462Z,72.44
2022-08-03T02:32:01.281Z,72.44
2022-08-03T02:33:00.999Z,72.44
2022-08-03T02:34:02.052Z,72.82
2022-08-03T02:35:01.345Z,72.82
2022-08-03T02:36:01.662Z,72.82
2022-08-03T02:37:01.369Z,72.82
2022-08-03T02:38:01.853Z,72.82
2022-08-03T02:39:00.705Z,72.56
2022-08-03T02:40:01.266Z,72.56
2022-08-03T02:41:03.787Z,72.56
2022-08-03T02:42:00.388Z,72.56
2022-08-03T02:43:03.117Z,72.56
2022-08-03T02:44:06.892Z,72.33
2022-08-03T02:45:01.883Z,72.33
2022-08-03T02:46:00.479Z,72.33
2022-08-03T02:47:02.464Z,72.33
2022-08-03T02:48:02.641Z,72.33
2022-08-03T02:49:50.821Z,72.64
2022-08-03T02:50:01.410Z,72.64
2022-08-03T02:51:01.832Z,72.64
2022-08-03T02:52:01.311Z,72.64
2022-08-03T02:53:00.871Z,72.64
2022-08-03T02:54:01.840Z,72.51
2022-08-03T02:55:02.173Z,72.51
2022-08-03T02:56:02.379Z,72.51
2022-08-03T02:57:01.107Z,72.51
2022-08-03T02:58:01.814Z,72.51
2022-08-03T02:59:00.678Z,72.29
2022-08-03T03:00:00.682Z,72.29
2022-08-03T03:01:00.840Z,72.29
2022-08-03T03:02:01.188Z,72.29
2022-08-03T03:03:01.523Z,72.29
2022-08-03T03:04:01.113Z,72.79
2022-08-03T03:05:52.409Z,72.79
2022-08-03T03:06:00.900Z,72.79
2022-08-03T03:07:01.872Z,72.79
2022-08-03T03:08:00.839Z,72.79
2022-08-03T03:09:00.526Z,72.52
2022-08-03T03:10:01.022Z,72.52
2022-08-03T03:11:00.706Z,72.52
2022-08-03T03:12:01.624Z,72.52
2022-08-03T03:13:01.110Z,72.52
2022-08-03T03:14:00.940Z,72.48
2022-08-03T03:15:00.264Z,72.48
2022-08-03T03:16:01.558Z,72.48
2022-08-03T03:17:01.308Z,72.48
2022-08-03T03:18:00.450Z,72.48
2022-08-03T03:19:00.819Z,72.12
2022-08-03T03:20:00.656Z,72.12
2022-08-03T03:21:01.665Z,72.12
2022-08-03T03:22:01.260Z,72.12
2022-08-03T03:23:01.355Z,72.12
2022-08-03T03:24:01.404Z,72.31
2022-08-03T03:25:00.892Z,72.31
2022-08-03T03:26:00.825Z,72.31
2022-08-03T03:27:00.673Z,72.31
2022-08-03T03:28:01.437Z,72.31
2022-08-03T03:29:01.194Z,72.37
2022-08-03T03:30:00.986Z,72.37
2022-08-03T03:31:00.370Z,72.37
2022-08-03T03:32:00.651Z,72.37
2022-08-03T03:33:00.635Z,72.37
2022-08-03T03:34:00.533Z,72.82
2022-08-03T03:35:00.717Z,72.82
2022-08-03T03:36:00.733Z,72.82
2022-08-03T03:37:00.442Z,72.82
2022-08-03T03:38:00.375Z,72.82
2022-08-03T03:39:00.416Z,72.14
2022-08-03T03:40:00.432Z,72.14
2022-08-03T03:41:00.681Z,72.14
2022-08-03T03:42:00.783Z,72.14
2022-08-03T03:43:00.656Z,72.14
2022-08-03T03:44:00.385Z,72.55
2022-08-03T03:45:04.114Z,72.55
2022-08-03T03:46:00.831Z,72.55
2022-08-03T03:47:00.430Z,72.55
2022-08-03T03:48:00.949Z,72.55
2022-08-03T03:49:00.469Z,73.18
2022-08-03T03:50:01.349Z,73.18
2022-08-03T03:51:00.857Z,73.18
2022-08-03T03:52:00.381Z,73.18
2022-08-03T03:53:01.029Z,73.18
2022-08-03T03:54:01.383Z,72.55
2022-08-03T03:55:01.542Z,72.55
2022-08-03T03:56:02.358Z,72.55
2022-08-03T03:57:00.517Z,72.55
2022-08-03T03:58:00.384Z,72.55
2022-08-03T03:59:00.367Z,72.75
2022-08-03T04:00:00.691Z,72.75
2022-08-03T04:01:00.577Z,72.75
2022-08-03T04:02:00.541Z,72.75
2022-08-03T04:03:00.434Z,72.75
2022-08-03T04:04:00.406Z,72.83
2022-08-03T04:05:00.410Z,72.83
2022-08-03T04:06:00.360Z,72.83
2022-08-03T04:07:00.436Z,72.83
2022-08-03T04:08:02.852Z,72.83
2022-08-03T04:09:00.398Z,72.82
2022-08-03T04:10:14.048Z,72.82
2022-08-03T04:11:05.928Z,72.82
2022-08-03T04:12:00.616Z,72.82
2022-08-03T04:13:01.410Z,72.82
2022-08-03T04:14:01.777Z,72.57
2022-08-03T04:15:02.288Z,72.57
2022-08-03T04:16:00.985Z,72.57
2022-08-03T04:17:02.230Z,72.57
2022-08-03T04:18:01.730Z,72.57
2022-08-03T04:19:02.011Z,72.92
2022-08-03T04:20:02.170Z,72.92
2022-08-03T04:21:01.589Z,72.92
2022-08-03T04:22:03.682Z,72.92
2022-08-03T04:23:01.578Z,72.92
2022-08-03T04:24:02.415Z,72.74
2022-08-03T04:25:01.975Z,72.74
2022-08-03T04:26:01.618Z,72.74
2022-08-03T04:27:02.042Z,72.74
2022-08-03T04:28:07.703Z,72.74
2022-08-03T04:29:01.557Z,72.49
2022-08-03T04:30:02.086Z,72.49
2022-08-03T04:31:02.347Z,72.49
2022-08-03T04:32:00.386Z,72.49
2022-08-03T04:33:01.271Z,72.49
2022-08-03T04:34:00.883Z,73.02
2022-08-03T04:35:00.466Z,73.02
2022-08-03T04:36:03.839Z,73.02
2022-08-03T04:37:02.150Z,73.02
2022-08-03T04:38:04.046Z,73.02
2022-08-03T04:39:00.436Z,72.73
2022-08-03T04:40:01.657Z,72.73
2022-08-03T04:41:00.566Z,72.73
2022-08-03T04:42:07.569Z,72.73
2022-08-03T04:43:01.178Z,72.73
2022-08-03T04:44:01.116Z,72.76
2022-08-03T04:45:02.083Z,72.76
2022-08-03T04:46:00.891Z,72.76
2022-08-03T04:47:00.730Z,72.76
2022-08-03T04:48:02.074Z,72.76
2022-08-03T04:49:00.680Z,72.80
2022-08-03T04:50:01.300Z,72.80
2022-08-03T04:51:00.560Z,72.80
2022-08-03T04:52:00.570Z,72.80
2022-08-03T04:53:00.506Z,72.80
2022-08-03T04:54:00.467Z,73.30
2022-08-03T04:55:00.571Z,73.30
2022-08-03T04:56:03.927Z,73.30
2022-08-03T04:57:00.387Z,73.30
2022-08-03T04:58:01.132Z,73.30
2022-08-03T04:59:00.444Z,73.18
2022-08-03T05:00:03.366Z,73.18
2022-08-03T05:01:00.421Z,73.18
2022-08-03T05:02:00.526Z,73.18
2022-08-03T05:03:00.433Z,73.18
2022-08-03T05:04:00.423Z,73.17
2022-08-03T05:05:00.389Z,73.17
2022-08-03T05:06:09.757Z,73.17
2022-08-03T05:07:00.403Z,73.17
2022-08-03T05:08:00.827Z,73.17
2022-08-03T05:09:00.433Z,72.98
2022-08-03T05:10:02.924Z,72.98
2022-08-03T05:11:00.401Z,72.98
2022-08-03T05:12:00.412Z,72.98
2022-08-03T05:13:00.313Z,72.98
2022-08-03T05:14:00.321Z,73.12
2022-08-03T05:15:00.631Z,73.12
2022-08-03T05:16:00.335Z,73.12
2022-08-03T05:17:00.454Z,73.12
2022-08-03T05:18:00.294Z,73.12
2022-08-03T05:19:00.292Z,72.78
2022-08-03T05:20:00.322Z,72.78
2022-08-03T05:21:00.609Z,72.78
2022-08-03T05:22:00.346Z,72.78
2022-08-03T05:23:00.348Z,72.78
2022-08-03T05:24:00.347Z,72.55
2022-08-03T05:25:00.610Z,72.55
2022-08-03T05:26:00.431Z,72.55
2022-08-03T05:27:00.314Z,72.55
2022-08-03T05:28:00.360Z,72.55
2022-08-03T05:29:00.303Z,72.52
2022-08-03T05:30:31.306Z,72.52
2022-08-03T05:31:00.263Z,72.52
2022-08-03T05:32:01.871Z,72.52
2022-08-03T05:33:00.959Z,72.52
2022-08-03T05:34:00.558Z,72.99
2022-08-03T05:35:00.277Z,72.99
2022-08-03T05:36:03.213Z,72.99
2022-08-03T05:37:00.284Z,72.99
2022-08-03T05:38:01.146Z,72.99
2022-08-03T05:39:02.818Z,72.82
2022-08-03T05:40:00.341Z,72.82
2022-08-03T05:41:22.294Z,72.82
2022-08-03T05:42:00.300Z,72.82
2022-08-03T05:43:00.654Z,72.82
2022-08-03T05:44:00.264Z,72.36
2022-08-03T05:45:02.688Z,72.36
2022-08-03T05:46:12.363Z,72.36
2022-08-03T05:47:00.282Z,72.36
2022-08-03T05:48:00.334Z,72.36
2022-08-03T05:49:00.405Z,72.03
2022-08-03T05:50:00.313Z,72.03
2022-08-03T05:51:00.271Z,72.03
2022-08-03T05:52:11.848Z,72.03
2022-08-03T05:53:00.278Z,72.03
2022-08-03T05:54:00.275Z,71.68
2022-08-03T05:55:00.263Z,71.68
2022-08-03T05:56:03.627Z,71.68
2022-08-03T05:57:00.276Z,71.68
2022-08-03T05:58:00.721Z,71.68
2022-08-03T05:59:16.290Z,72.07
2022-08-03T06:01:00.277Z,72.07
2022-08-03T06:02:00.310Z,72.07
2022-08-03T06:32:00.342Z,72.01
2022-08-03T06:33:00.372Z,72.05
2022-08-03T06:34:32.990Z,72.05
2022-08-03T06:35:00.367Z,72.05
2022-08-03T06:36:00.385Z,72.05
2022-08-03T06:37:02.340Z,72.05
2022-08-03T06:38:00.319Z,71.94
2022-08-03T06:39:00.429Z,71.94
2022-08-03T06:40:00.309Z,71.94
2022-08-03T06:41:00.295Z,71.94
2022-08-03T06:42:00.353Z,71.94
2022-08-03T06:43:01.315Z,71.98
2022-08-03T06:44:02.958Z,71.98
2022-08-03T06:45:00.308Z,71.98
2022-08-03T06:46:00.300Z,71.98
2022-08-03T06:47:00.313Z,71.98
2022-08-03T06:48:02.881Z,71.64
2022-08-03T06:49:00.404Z,71.64
2022-08-03T06:50:17.141Z,71.64
2022-08-03T06:51:00.305Z,71.64
2022-08-03T06:52:04.030Z,71.64
2022-08-03T06:53:00.409Z,71.72
2022-08-03T06:54:00.335Z,71.72
2022-08-03T06:55:00.334Z,71.72
2022-08-03T06:56:00.311Z,71.72
2022-08-03T06:57:00.315Z,71.72
2022-08-03T06:58:03.305Z,71.28
2022-08-03T06:59:00.271Z,71.28
2022-08-03T07:00:09.352Z,71.28
2022-08-03T07:01:00.344Z,71.28
2022-08-03T07:02:00.270Z,71.28
2022-08-03T07:03:00.305Z,71.10
2022-08-03T07:04:00.285Z,71.10
2022-08-03T07:05:00.272Z,71.10
2022-08-03T07:06:00.294Z,71.10
2022-08-03T07:07:00.510Z,71.10
2022-08-03T07:08:00.277Z,70.82
2022-08-03T07:09:00.325Z,70.82
2022-08-03T07:10:00.464Z,70.82
2022-08-03T07:11:00.458Z,70.82
2022-08-03T07:12:00.302Z,70.82
2022-08-03T07:13:00.257Z,71.22
2022-08-03T07:14:00.311Z,71.22
2022-08-03T07:15:02.249Z,71.22
2022-08-03T07:16:00.312Z,71.22
2022-08-03T07:17:00.262Z,71.22
2022-08-03T07:18:00.330Z,70.79
2022-08-03T07:19:00.264Z,70.79
2022-08-03T07:20:00.934Z,70.79
2022-08-03T07:21:00.373Z,70.79
2022-08-03T07:22:02.262Z,70.79
2022-08-03T07:23:00.253Z,70.55
2022-08-03T07:24:00.258Z,70.55
2022-08-03T07:25:00.403Z,70.55
2022-08-03T07:26:00.308Z,70.55
2022-08-03T07:27:00.279Z,70.55
2022-08-03T07:28:00.270Z,70.12
2022-08-03T07:29:00.267Z,70.12
2022-08-03T07:30:00.357Z,70.12
2022-08-03T07:31:00.294Z,70.12
2022-08-03T07:32:00.809Z,70.12
2022-08-03T07:33:00.367Z,69.04
2022-08-03T07:34:00.295Z,69.04
2022-08-03T07:35:01.346Z,69.04
2022-08-03T07:36:00.332Z,69.04
2022-08-03T07:37:00.496Z,69.04
2022-08-03T07:38:00.260Z,67.90
2022-08-03T07:39:00.267Z,67.90
2022-08-03T07:40:00.905Z,67.90
2022-08-03T07:41:00.275Z,67.90
2022-08-03T07:42:00.286Z,67.90
2022-08-03T07:43:00.276Z,66.95
2022-08-03T07:44:00.264Z,66.95
2022-08-03T07:45:00.341Z,66.95
2022-08-03T07:46:00.259Z,66.95
2022-08-03T07:47:03.250Z,66.95
2022-08-03T07:48:00.282Z,66.58
2022-08-03T07:49:00.331Z,66.58
2022-08-03T07:50:00.405Z,66.58
2022-08-03T07:51:00.266Z,66.58
2022-08-03T07:52:00.268Z,66.58
2022-08-03T07:53:00.264Z,66.38
2022-08-03T07:54:00.479Z,66.38
2022-08-03T07:55:00.309Z,66.38
2022-08-03T07:56:00.283Z,66.38
2022-08-03T07:57:00.268Z,66.38
2022-08-03T07:58:01.346Z,66.24
2022-08-03T07:59:00.308Z,66.24
2022-08-03T08:00:02.169Z,66.24
2022-08-03T08:01:00.375Z,66.24
2022-08-03T08:02:00.275Z,66.24
2022-08-03T08:03:00.839Z,66.63
2022-08-03T08:04:00.263Z,66.63
2022-08-03T08:05:05.339Z,66.63
2022-08-03T08:06:00.268Z,66.63
2022-08-03T08:07:00.261Z,66.63
2022-08-03T08:08:00.781Z,66.65
2022-08-03T08:09:00.344Z,66.65
2022-08-03T08:10:00.288Z,66.65
2022-08-03T08:11:00.277Z,66.65
2022-08-03T08:12:00.341Z,66.65
2022-08-03T08:13:00.712Z,66.60
2022-08-03T08:14:00.292Z,66.60
2022-08-03T08:15:00.842Z,66.60
2022-08-03T08:16:00.259Z,66.60
2022-08-03T08:17:04.363Z,66.60
2022-08-03T08:18:00.502Z,66.50
2022-08-03T08:19:00.317Z,66.50
2022-08-03T08:20:00.281Z,66.50
2022-08-03T08:21:00.311Z,66.50
2022-08-03T08:22:02.225Z,66.50
2022-08-03T08:23:01.864Z,66.28
2022-08-03T08:24:00.263Z,66.28
2022-08-03T08:25:01.363Z,66.28
2022-08-03T08:26:00.417Z,66.28
2022-08-03T08:27:00.262Z,66.28
2022-08-03T08:28:31.034Z,66.09
2022-08-03T08:29:00.309Z,66.09
2022-08-03T08:30:10.182Z,66.09
2022-08-03T08:31:00.584Z,66.09
2022-08-03T08:32:00.270Z,66.09
2022-08-03T08:33:00.283Z,66.12
2022-08-03T08:34:03.926Z,66.12
2022-08-03T08:35:00.280Z,66.12
2022-08-03T08:36:00.428Z,66.12
2022-08-03T08:37:00.292Z,66.12
2022-08-03T08:38:00.292Z,65.60
2022-08-03T08:39:00.487Z,65.60
2022-08-03T08:40:00.772Z,65.60
2022-08-03T08:41:00.372Z,65.60
2022-08-03T08:42:00.317Z,65.60
2022-08-03T08:43:00.904Z,65.47
2022-08-03T08:44:01.113Z,65.47
2022-08-03T08:45:00.260Z,65.47
2022-08-03T08:46:00.851Z,65.47
2022-08-03T08:47:01.690Z,65.47
2022-08-03T08:48:05.436Z,65.24
2022-08-03T08:49:00.458Z,65.24
2022-08-03T08:50:09.744Z,65.24
2022-08-03T08:51:00.743Z,65.24
2022-08-03T08:52:02.256Z,65.24
2022-08-03T08:53:01.494Z,64.78
2022-08-03T08:54:00.782Z,64.78
2022-08-03T08:55:02.607Z,64.78
2022-08-03T08:56:01.535Z,64.78
2022-08-03T08:57:01.419Z,64.78
2022-08-03T08:58:03.859Z,64.61
2022-08-03T08:59:00.586Z,64.61
2022-08-03T09:00:00.561Z,64.61
2022-08-03T09:01:00.374Z,64.61
2022-08-03T09:02:00.310Z,64.61
2022-08-03T09:03:00.721Z,64.76
2022-08-03T09:04:01.226Z,64.76
2022-08-03T09:05:05.326Z,64.76
2022-08-03T09:06:02.438Z,64.76
2022-08-03T09:07:29.060Z,64.76
2022-08-03T09:08:00.419Z,64.78
2022-08-03T09:09:00.423Z,64.78
2022-08-03T09:10:10.582Z,64.78
2022-08-03T09:11:00.369Z,64.78
2022-08-03T09:12:20.005Z,64.78
2022-08-03T09:13:00.305Z,64.58
2022-08-03T09:14:00.274Z,64.58
2022-08-03T09:15:16.948Z,64.58
2022-08-03T09:16:08.564Z,64.58
2022-08-03T09:17:01.243Z,64.58
2022-08-03T09:18:01.830Z,64.35
2022-08-03T09:19:10.173Z,64.35
2022-08-03T09:20:05.335Z,64.35
2022-08-03T09:21:29.723Z,64.35
2022-08-03T09:22:09.055Z,64.35
2022-08-03T09:23:09.702Z,64.63
2022-08-03T09:24:03.209Z,64.63
2022-08-03T09:25:23.443Z,64.63
2022-08-03T09:26:00.340Z,64.63
2022-08-03T09:27:00.376Z,64.63
2022-08-03T09:28:03.814Z,64.08
2022-08-03T09:29:04.057Z,64.08
2022-08-03T09:30:00.287Z,64.08
2022-08-03T09:31:00.273Z,64.08
2022-08-03T09:32:01.503Z,64.08
2022-08-03T09:33:01.228Z,64.04
2022-08-03T09:34:01.465Z,64.04
2022-08-03T09:35:02.950Z,64.04
2022-08-03T09:36:00.282Z,64.04
2022-08-03T09:37:00.285Z,64.04
2022-08-03T09:38:13.787Z,63.75
2022-08-03T09:39:01.268Z,63.75
2022-08-03T09:40:00.301Z,63.75
2022-08-03T09:41:00.976Z,63.75
2022-08-03T09:42:04.412Z,63.75
2022-08-03T09:43:00.301Z,63.94
2022-08-03T09:44:00.279Z,63.94
2022-08-03T09:45:00.278Z,63.94
2022-08-03T09:46:02.452Z,63.94
2022-08-03T09:47:00.271Z,63.94
2022-08-03T09:48:10.183Z,63.74
2022-08-03T09:49:11.550Z,63.74
2022-08-03T09:50:01.859Z,63.74
2022-08-03T09:51:13.478Z,63.74
2022-08-03T09:52:30.233Z,63.74
2022-08-03T09:53:00.882Z,63.72
2022-08-03T09:54:00.596Z,63.72
2022-08-03T09:55:01.129Z,63.72
2022-08-03T09:56:34.962Z,63.72
2022-08-03T09:57:01.192Z,63.72
2022-08-03T09:58:04.669Z,63.99
2022-08-03T09:59:00.311Z,63.99
2022-08-03T10:00:08.993Z,63.99
2022-08-03T10:01:01.470Z,63.99
2022-08-03T10:02:00.348Z,63.99
2022-08-03T10:03:03.637Z,64.06
2022-08-03T10:04:03.821Z,64.06
2022-08-03T10:05:00.378Z,64.06
2022-08-03T10:06:10.182Z,64.06
2022-08-03T10:07:05.601Z,64.06
2022-08-03T10:08:10.188Z,64.00
2022-08-03T10:09:04.497Z,64.00
2022-08-03T10:10:29.116Z,64.00
2022-08-03T10:11:00.262Z,64.00
2022-08-03T10:12:08.587Z,64.00
2022-08-03T10:13:00.377Z,63.20
2022-08-03T10:14:02.861Z,63.20
2022-08-03T10:15:00.603Z,63.20
2022-08-03T10:16:23.556Z,63.20
2022-08-03T10:17:00.319Z,63.20
2022-08-03T10:18:00.312Z,62.71
2022-08-03T10:19:00.637Z,62.71
2022-08-03T10:20:00.310Z,62.71
2022-08-03T10:21:02.949Z,62.71
2022-08-03T10:22:02.588Z,62.71
2022-08-03T10:23:00.607Z,62.51
2022-08-03T10:24:02.592Z,62.51
2022-08-03T10:25:10.185Z,62.51
2022-08-03T10:26:01.920Z,62.51
2022-08-03T10:27:01.532Z,62.51
2022-08-03T10:28:01.616Z,61.83
2022-08-03T10:29:02.449Z,61.83
2022-08-03T10:30:01.132Z,61.83
2022-08-03T10:31:00.721Z,61.83
2022-08-03T10:32:03.178Z,61.83
2022-08-03T10:33:02.249Z,60.98
2022-08-03T10:34:01.019Z,60.98
2022-08-03T10:35:21.004Z,60.98
2022-08-03T10:36:01.195Z,60.98
2022-08-03T10:37:02.348Z,60.98
2022-08-03T10:38:02.432Z,60.08
2022-08-03T10:39:01.641Z,60.08
2022-08-03T10:40:01.434Z,60.08
2022-08-03T10:41:00.835Z,60.08
2022-08-03T10:42:02.614Z,60.08
2022-08-03T10:43:06.896Z,59.62
2022-08-03T10:44:10.167Z,59.62
2022-08-03T10:45:03.507Z,59.62
2022-08-03T10:46:02.247Z,59.62
2022-08-03T10:47:00.324Z,59.62
2022-08-03T10:48:00.681Z,59.29
2022-08-03T10:49:00.605Z,59.29
2022-08-03T10:50:00.946Z,59.29
2022-08-03T10:51:00.731Z,59.29
2022-08-03T10:52:00.359Z,59.29
2022-08-03T10:53:03.985Z,58.44
2022-08-03T10:54:01.871Z,58.44
2022-08-03T10:55:00.304Z,58.44
2022-08-03T10:56:00.278Z,58.44
2022-08-03T10:57:01.106Z,58.44
2022-08-03T10:58:00.271Z,57.26
2022-08-03T10:59:00.307Z,57.26
2022-08-03T11:00:00.325Z,57.26
2022-08-03T11:01:00.321Z,57.26
2022-08-03T11:02:01.348Z,57.26
2022-08-03T11:03:00.241Z,56.88
2022-08-03T11:04:00.240Z,56.88
2022-08-03T11:05:10.186Z,56.88
2022-08-03T11:06:10.166Z,56.88
2022-08-03T11:07:10.160Z,56.88
2022-08-03T11:08:10.165Z,57.05
2022-08-03T11:09:10.158Z,57.05
2022-08-03T11:10:00.270Z,57.05
2022-08-03T11:11:01.957Z,57.05
2022-08-03T11:12:10.182Z,57.05
2022-08-03T11:13:08.230Z,56.58
2022-08-03T11:14:10.167Z,56.58
2022-08-03T11:15:03.291Z,56.58
2022-08-03T11:16:02.375Z,56.58
2022-08-03T11:17:07.621Z,56.58
2022-08-03T11:18:07.656Z,56.64
2022-08-03T11:19:03.231Z,56.64
2022-08-03T11:20:00.311Z,56.64
2022-08-03T11:21:00.355Z,56.64
2022-08-03T11:22:00.291Z,56.64
2022-08-03T11:23:00.318Z,56.37
2022-08-03T11:24:02.799Z,56.37
2022-08-03T11:25:00.426Z,56.37
2022-08-03T11:26:07.600Z,56.37
2022-08-03T11:27:10.157Z,56.37
2022-08-03T11:28:10.177Z,56.07
2022-08-03T11:29:10.160Z,56.07
2022-08-03T11:30:00.245Z,56.07
2022-08-03T11:31:18.411Z,56.07
2022-08-03T11:32:00.315Z,56.07
2022-08-03T11:33:00.348Z,56.25
2022-08-03T11:34:07.616Z,56.25
2022-08-03T11:35:10.180Z,56.25
2022-08-03T11:36:00.738Z,56.25
2022-08-03T11:37:10.162Z,56.25
2022-08-03T11:38:04.720Z,55.80
2022-08-03T11:39:10.175Z,55.80
2022-08-03T11:40:02.773Z,55.80
2022-08-03T11:41:00.276Z,55.80
2022-08-03T11:42:10.164Z,55.80
2022-08-03T11:43:00.630Z,56.37
2022-08-03T11:44:00.327Z,56.37
2022-08-03T11:45:00.393Z,56.37
2022-08-03T11:46:01.300Z,56.37
2022-08-03T11:47:00.365Z,56.37
2022-08-03T11:48:02.369Z,55.96
2022-08-03T11:49:07.729Z,55.96
2022-08-03T11:50:00.469Z,55.96
2022-08-03T11:51:02.168Z,55.96
2022-08-03T11:52:00.289Z,55.96
2022-08-03T11:53:00.311Z,55.38
2022-08-03T11:54:02.442Z,55.38
2022-08-03T11:55:00.745Z,55.38
2022-08-03T11:56:01.478Z,55.38
2022-08-03T11:57:00.309Z,55.38
2022-08-03T11:59:17.419Z,55.19
2022-08-03T11:59:20.153Z,55.19
2022-08-03T12:00:00.363Z,55.19
2022-08-03T12:01:04.278Z,55.19
2022-08-03T12:02:10.176Z,55.19
2022-08-03T12:03:01.319Z,54.74
2022-08-03T12:04:02.442Z,54.74
2022-08-03T12:05:00.282Z,54.74
2022-08-03T12:06:00.268Z,54.74
2022-08-03T12:07:00.408Z,54.74
2022-08-03T12:08:04.071Z,54.96
2022-08-03T12:09:00.250Z,54.96
2022-08-03T12:10:10.162Z,54.96
2022-08-03T12:11:01.981Z,54.96
2022-08-03T12:12:01.261Z,54.96
2022-08-03T12:13:00.977Z,55.25
2022-08-03T12:14:46.270Z,55.25
2022-08-03T12:15:01.138Z,55.25
2022-08-03T12:16:01.097Z,55.25
2022-08-03T12:17:00.257Z,55.25
2022-08-03T12:18:01.250Z,55.72
2022-08-03T12:19:01.372Z,55.72
2022-08-03T12:20:00.473Z,55.72
2022-08-03T12:21:08.239Z,55.72
2022-08-03T12:22:00.272Z,55.72
2022-08-03T12:23:02.367Z,55.82
2022-08-03T12:24:01.941Z,55.82
2022-08-03T12:25:00.510Z,55.82
2022-08-03T12:26:01.436Z,55.82
2022-08-03T12:27:00.370Z,55.82
2022-08-03T12:28:30.418Z,56.06
2022-08-03T12:29:00.260Z,56.06
2022-08-03T12:30:00.927Z,56.06
2022-08-03T12:31:02.059Z,56.06
2022-08-03T12:32:00.332Z,56.06
2022-08-03T12:33:10.175Z,56.16
2022-08-03T12:34:01.355Z,56.16
2022-08-03T12:35:00.507Z,56.16
2022-08-03T12:36:03.869Z,56.16
2022-08-03T12:37:03.982Z,56.16
2022-08-03T12:38:00.418Z,56.04
2022-08-03T12:39:01.556Z,56.04
2022-08-03T12:40:02.698Z,56.04
2022-08-03T12:41:01.477Z,56.04
2022-08-03T12:42:00.268Z,56.04
2022-08-03T12:43:00.404Z,56.24
2022-08-03T12:44:01.022Z,56.24
2022-08-03T12:45:10.190Z,56.24
2022-08-03T12:46:08.552Z,56.24
2022-08-03T12:47:01.121Z,56.24
2022-08-03T12:48:01.102Z,56.25
2022-08-03T12:49:09.081Z,56.25
2022-08-03T12:50:00.295Z,56.25
2022-08-03T12:51:08.340Z,56.25
2022-08-03T12:52:05.305Z,56.25
2022-08-03T12:53:01.355Z,55.87
2022-08-03T12:54:00.773Z,55.87
2022-08-03T12:55:00.439Z,55.87
2022-08-03T12:56:05.625Z,55.87
2022-08-03T12:57:01.383Z,55.87
2022-08-03T12:58:00.932Z,55.86
2022-08-03T12:59:10.174Z,55.86
2022-08-03T13:00:21.160Z,55.86
2022-08-03T13:01:00.996Z,55.86
2022-08-03T13:02:00.652Z,55.86
2022-08-03T13:03:38.338Z,55.78
2022-08-03T13:04:00.315Z,55.78
2022-08-03T13:05:08.891Z,55.78
2022-08-03T13:06:00.285Z,55.78
2022-08-03T13:07:03.333Z,55.78
2022-08-03T13:08:00.330Z,55.70
2022-08-03T13:09:02.613Z,55.70
2022-08-03T13:10:03.693Z,55.70
2022-08-03T13:11:10.183Z,55.70
2022-08-03T13:12:04.285Z,55.70
2022-08-03T13:13:00.267Z,55.81
2022-08-03T13:14:00.288Z,55.81
2022-08-03T13:15:00.339Z,55.81
2022-08-03T13:16:00.304Z,55.81
2022-08-03T13:17:00.338Z,55.81
2022-08-03T13:18:00.277Z,55.45
2022-08-03T13:19:00.296Z,55.45
2022-08-03T13:20:00.330Z,55.45
2022-08-03T13:21:00.387Z,55.45
2022-08-03T13:22:04.423Z,55.45
2022-08-03T13:23:01.070Z,55.40